sensor_id;sensor_type;location;lat;lon;timestamp;temperature;humidity
10566;DHT22;5331;48.148;16.326;2023-06-14T00:02:21;13.30;1.00
10566;DHT22;5331;48.148;16.326;2023-06-14T00:04:47;13.30;1.00
10566;DHT22;5331;48.148;16.326;2023-06-14T00:07:16;13.20;1.00
10566;DHT22;5331;48.148;16.326;2023-06-14T00:09:44;13.20;1.00
10566;DHT22;5331;48.148;16.326;2023-06-14T00:12:11;13.10;1.00
10566;DHT22;5331;48.148;16.326;2023-06-14T00:14:38;13.10;1.00
10566;DHT22;5331;48.148;16.326;2023-06-14T00:17:05;13.10;1.00
10566;DHT22;5331;48.148;16.326;2023-06-14T00:30:12;13.00;1.00
10566;DHT22;5331;48.148;16.326;2023-06-14T00:32:39;13.00;1.00
10566;DHT22;5331;48.148;16.326;2023-06-14T00:35:06;13.00;1.00
10566;DHT22;5331;48.148;16.326;2023-06-14T00:37:33;13.00;1.00
10566;DHT22;5331;48.148;16.326;2023-06-14T00:40:00;13.00;1.00
10566;DHT22;5331;48.148;16.326;2023-06-14T00:42:28;13.00;1.00
10566;DHT22;5331;48.148;16.326;2023-06-14T00:44:55;12.90;1.00
10566;DHT22;5331;48.148;16.326;2023-06-14T00:47:24;12.90;1.00
10566;DHT22;5331;48.148;16.326;2023-06-14T00:49:51;12.90;1.00
10566;DHT22;5331;48.148;16.326;2023-06-14T00:52:20;12.80;1.00
10566;DHT22;5331;48.148;16.326;2023-06-14T00:54:47;12.80;1.00
10566;DHT22;5331;48.148;16.326;2023-06-14T00:57:15;12.80;1.00
10566;DHT22;5331;48.148;16.326;2023-06-14T00:59:43;12.80;1.00
10566;DHT22;5331;48.148;16.326;2023-06-14T01:02:11;12.70;1.00
10566;DHT22;5331;48.148;16.326;2023-06-14T01:04:40;12.70;1.00
10566;DHT22;5331;48.148;16.326;2023-06-14T01:10:03;12.80;1.00
10566;DHT22;5331;48.148;16.326;2023-06-14T01:12:35;12.80;1.00
10566;DHT22;5331;48.148;16.326;2023-06-14T01:15:06;12.80;1.00
10566;DHT22;5331;48.148;16.326;2023-06-14T01:17:34;12.80;1.00
10566;DHT22;5331;48.148;16.326;2023-06-14T01:20:03;12.90;1.00
10566;DHT22;5331;48.148;16.326;2023-06-14T01:22:36;12.90;1.00
10566;DHT22;5331;48.148;16.326;2023-06-14T01:25:05;12.90;1.00
10566;DHT22;5331;48.148;16.326;2023-06-14T01:27:34;12.90;1.00
10566;DHT22;5331;48.148;16.326;2023-06-14T01:30:01;12.90;1.00
10566;DHT22;5331;48.148;16.326;2023-06-14T01:32:29;12.90;1.00
10566;DHT22;5331;48.148;16.326;2023-06-14T01:34:56;12.90;1.00
10566;DHT22;5331;48.148;16.326;2023-06-14T01:37:23;12.90;1.00
10566;DHT22;5331;48.148;16.326;2023-06-14T01:39:50;13.00;1.00
10566;DHT22;5331;48.148;16.326;2023-06-14T01:42:19;12.90;1.00
10566;DHT22;5331;48.148;16.326;2023-06-14T01:44:47;13.00;1.00
10566;DHT22;5331;48.148;16.326;2023-06-14T01:47:15;13.00;1.00
10566;DHT22;5331;48.148;16.326;2023-06-14T01:49:42;13.00;1.00
10566;DHT22;5331;48.148;16.326;2023-06-14T01:52:09;13.00;1.00
10566;DHT22;5331;48.148;16.326;2023-06-14T01:54:36;13.10;1.00
10566;DHT22;5331;48.148;16.326;2023-06-14T01:57:07;13.10;1.00
10566;DHT22;5331;48.148;16.326;2023-06-14T01:59:35;13.10;1.00
10566;DHT22;5331;48.148;16.326;2023-06-14T02:02:03;13.10;1.00
10566;DHT22;5331;48.148;16.326;2023-06-14T02:04:31;13.10;1.00
10566;DHT22;5331;48.148;16.326;2023-06-14T02:06:58;13.10;1.00
10566;DHT22;5331;48.148;16.326;2023-06-14T02:09:25;13.10;1.00
10566;DHT22;5331;48.148;16.326;2023-06-14T02:11:52;13.10;1.00
10566;DHT22;5331;48.148;16.326;2023-06-14T02:14:18;13.10;1.00
10566;DHT22;5331;48.148;16.326;2023-06-14T02:16:47;13.10;1.00
10566;DHT22;5331;48.148;16.326;2023-06-14T02:19:15;13.10;1.00
10566;DHT22;5331;48.148;16.326;2023-06-14T02:21:42;13.10;1.00
10566;DHT22;5331;48.148;16.326;2023-06-14T02:24:09;13.10;1.00
10566;DHT22;5331;48.148;16.326;2023-06-14T02:26:36;13.20;1.00
10566;DHT22;5331;48.148;16.326;2023-06-14T02:29:04;13.20;1.00
10566;DHT22;5331;48.148;16.326;2023-06-14T02:31:31;13.20;1.00
10566;DHT22;5331;48.148;16.326;2023-06-14T02:33:59;13.20;1.00
10566;DHT22;5331;48.148;16.326;2023-06-14T02:36:26;13.30;1.00
10566;DHT22;5331;48.148;16.326;2023-06-14T02:38:56;13.30;1.00
10566;DHT22;5331;48.148;16.326;2023-06-14T02:41:23;13.30;1.00
10566;DHT22;5331;48.148;16.326;2023-06-14T02:43:51;13.30;1.00
10566;DHT22;5331;48.148;16.326;2023-06-14T02:46:18;13.30;1.00
10566;DHT22;5331;48.148;16.326;2023-06-14T02:48:45;13.20;1.00
10566;DHT22;5331;48.148;16.326;2023-06-14T02:51:14;13.20;1.00
10566;DHT22;5331;48.148;16.326;2023-06-14T02:53:40;13.20;1.00
10566;DHT22;5331;48.148;16.326;2023-06-14T02:56:07;13.20;1.00
10566;DHT22;5331;48.148;16.326;2023-06-14T02:58:36;13.20;1.00
10566;DHT22;5331;48.148;16.326;2023-06-14T03:01:03;13.20;1.00
10566;DHT22;5331;48.148;16.326;2023-06-14T03:03:31;13.20;1.00
10566;DHT22;5331;48.148;16.326;2023-06-14T03:05:58;13.20;1.00
10566;DHT22;5331;48.148;16.326;2023-06-14T03:08:32;13.20;1.00
10566;DHT22;5331;48.148;16.326;2023-06-14T03:11:04;13.20;1.00
10566;DHT22;5331;48.148;16.326;2023-06-14T03:13:31;13.10;1.00
10566;DHT22;5331;48.148;16.326;2023-06-14T03:15:59;13.20;1.00
10566;DHT22;5331;48.148;16.326;2023-06-14T03:18:28;13.20;1.00
10566;DHT22;5331;48.148;16.326;2023-06-14T03:20:56;13.20;1.00
10566;DHT22;5331;48.148;16.326;2023-06-14T03:23:23;13.10;1.00
10566;DHT22;5331;48.148;16.326;2023-06-14T03:25:52;13.10;1.00
10566;DHT22;5331;48.148;16.326;2023-06-14T03:28:19;13.10;1.00
10566;DHT22;5331;48.148;16.326;2023-06-14T03:30:46;13.00;1.00
10566;DHT22;5331;48.148;16.326;2023-06-14T03:33:13;12.90;1.00
10566;DHT22;5331;48.148;16.326;2023-06-14T03:35:41;12.90;1.00
10566;DHT22;5331;48.148;16.326;2023-06-14T03:38:08;12.90;1.00
10566;DHT22;5331;48.148;16.326;2023-06-14T03:40:35;12.90;1.00
10566;DHT22;5331;48.148;16.326;2023-06-14T03:43:03;12.90;1.00
10566;DHT22;5331;48.148;16.326;2023-06-14T03:45:31;12.90;1.00
10566;DHT22;5331;48.148;16.326;2023-06-14T03:47:58;12.90;1.00
10566;DHT22;5331;48.148;16.326;2023-06-14T03:50:26;12.90;1.00
10566;DHT22;5331;48.148;16.326;2023-06-14T03:52:53;12.90;1.00
10566;DHT22;5331;48.148;16.326;2023-06-14T03:55:20;13.00;1.00
10566;DHT22;5331;48.148;16.326;2023-06-14T03:57:50;13.00;1.00
10566;DHT22;5331;48.148;16.326;2023-06-14T04:00:19;13.00;1.00
10566;DHT22;5331;48.148;16.326;2023-06-14T04:02:46;13.10;1.00
10566;DHT22;5331;48.148;16.326;2023-06-14T04:05:13;13.10;1.00
10566;DHT22;5331;48.148;16.326;2023-06-14T04:07:42;13.20;1.00
10566;DHT22;5331;48.148;16.326;2023-06-14T04:10:11;13.30;1.00
10566;DHT22;5331;48.148;16.326;2023-06-14T04:12:38;13.20;1.00
10566;DHT22;5331;48.148;16.326;2023-06-14T04:15:09;13.20;1.00
10566;DHT22;5331;48.148;16.326;2023-06-14T04:17:38;13.20;1.00
10566;DHT22;5331;48.148;16.326;2023-06-14T04:20:06;13.20;1.00
10566;DHT22;5331;48.148;16.326;2023-06-14T04:22:35;13.30;1.00
10566;DHT22;5331;48.148;16.326;2023-06-14T04:25:03;13.30;1.00
10566;DHT22;5331;48.148;16.326;2023-06-14T04:27:31;13.40;1.00
10566;DHT22;5331;48.148;16.326;2023-06-14T04:30:01;13.50;1.00
10566;DHT22;5331;48.148;16.326;2023-06-14T04:32:29;13.60;1.00
10566;DHT22;5331;48.148;16.326;2023-06-14T04:35:00;13.70;1.00
10566;DHT22;5331;48.148;16.326;2023-06-14T04:37:29;13.80;1.00
10566;DHT22;5331;48.148;16.326;2023-06-14T04:39:56;14.00;1.00
10566;DHT22;5331;48.148;16.326;2023-06-14T04:42:23;14.00;1.00
10566;DHT22;5331;48.148;16.326;2023-06-14T04:44:51;14.10;1.00
10566;DHT22;5331;48.148;16.326;2023-06-14T04:47:21;14.20;1.00
10566;DHT22;5331;48.148;16.326;2023-06-14T04:49:50;14.20;1.00
10566;DHT22;5331;48.148;16.326;2023-06-14T04:52:20;14.30;1.00
10566;DHT22;5331;48.148;16.326;2023-06-14T04:54:47;14.40;1.00
10566;DHT22;5331;48.148;16.326;2023-06-14T04:57:14;14.50;1.00
10566;DHT22;5331;48.148;16.326;2023-06-14T04:59:43;14.70;1.00
10566;DHT22;5331;48.148;16.326;2023-06-14T05:02:12;14.80;1.00
10566;DHT22;5331;48.148;16.326;2023-06-14T05:04:40;14.90;1.00
10566;DHT22;5331;48.148;16.326;2023-06-14T05:07:08;15.10;1.00
10566;DHT22;5331;48.148;16.326;2023-06-14T05:09:37;15.20;1.00
10566;DHT22;5331;48.148;16.326;2023-06-14T05:12:05;15.20;1.00
10566;DHT22;5331;48.148;16.326;2023-06-14T05:14:33;15.30;1.00
10566;DHT22;5331;48.148;16.326;2023-06-14T05:17:00;15.30;1.00
10566;DHT22;5331;48.148;16.326;2023-06-14T05:19:29;15.40;1.00
10566;DHT22;5331;48.148;16.326;2023-06-14T05:21:55;15.50;1.00
10566;DHT22;5331;48.148;16.326;2023-06-14T05:24:22;15.50;1.00
10566;DHT22;5331;48.148;16.326;2023-06-14T05:26:53;15.60;1.00
10566;DHT22;5331;48.148;16.326;2023-06-14T05:29:26;15.60;1.00
10566;DHT22;5331;48.148;16.326;2023-06-14T05:31:53;15.60;1.00
10566;DHT22;5331;48.148;16.326;2023-06-14T05:34:20;15.60;1.00
10566;DHT22;5331;48.148;16.326;2023-06-14T05:36:47;15.50;1.00
10566;DHT22;5331;48.148;16.326;2023-06-14T05:39:13;15.60;1.00
10566;DHT22;5331;48.148;16.326;2023-06-14T05:41:44;15.70;1.00
10566;DHT22;5331;48.148;16.326;2023-06-14T05:44:15;15.80;1.00
10566;DHT22;5331;48.148;16.326;2023-06-14T05:46:53;16.10;1.00
10566;DHT22;5331;48.148;16.326;2023-06-14T05:49:20;16.20;1.00
10566;DHT22;5331;48.148;16.326;2023-06-14T05:51:47;16.40;1.00
10566;DHT22;5331;48.148;16.326;2023-06-14T05:54:15;16.50;1.00
10566;DHT22;5331;48.148;16.326;2023-06-14T05:56:42;16.50;1.00
10566;DHT22;5331;48.148;16.326;2023-06-14T05:59:09;16.70;1.00
10566;DHT22;5331;48.148;16.326;2023-06-14T06:01:37;16.80;1.00
10566;DHT22;5331;48.148;16.326;2023-06-14T06:04:05;17.10;1.00
10566;DHT22;5331;48.148;16.326;2023-06-14T06:06:32;17.40;1.00
10566;DHT22;5331;48.148;16.326;2023-06-14T06:09:01;17.70;1.00
10566;DHT22;5331;48.148;16.326;2023-06-14T06:11:28;18.00;1.00
10566;DHT22;5331;48.148;16.326;2023-06-14T06:13:55;18.40;1.00
10566;DHT22;5331;48.148;16.326;2023-06-14T06:16:22;18.90;1.00
10566;DHT22;5331;48.148;16.326;2023-06-14T06:18:50;19.00;1.00
10566;DHT22;5331;48.148;16.326;2023-06-14T06:21:17;19.30;1.00
10566;DHT22;5331;48.148;16.326;2023-06-14T06:23:44;19.80;1.00
10566;DHT22;5331;48.148;16.326;2023-06-14T06:26:11;20.10;1.00
10566;DHT22;5331;48.148;16.326;2023-06-14T06:28:38;20.40;1.00
10566;DHT22;5331;48.148;16.326;2023-06-14T06:31:05;20.70;1.00
10566;DHT22;5331;48.148;16.326;2023-06-14T06:33:32;20.80;1.00
10566;DHT22;5331;48.148;16.326;2023-06-14T06:36:00;21.00;1.00
10566;DHT22;5331;48.148;16.326;2023-06-14T06:38:27;21.30;1.00
10566;DHT22;5331;48.148;16.326;2023-06-14T06:40:54;21.60;1.00
10566;DHT22;5331;48.148;16.326;2023-06-14T06:43:22;21.90;1.00
10566;DHT22;5331;48.148;16.326;2023-06-14T06:45:49;22.10;1.00
10566;DHT22;5331;48.148;16.326;2023-06-14T06:48:15;22.00;1.00
10566;DHT22;5331;48.148;16.326;2023-06-14T06:50:42;22.10;1.00
10566;DHT22;5331;48.148;16.326;2023-06-14T06:53:11;22.10;1.00
10566;DHT22;5331;48.148;16.326;2023-06-14T06:55:37;22.20;1.00
10566;DHT22;5331;48.148;16.326;2023-06-14T06:58:04;22.50;1.00
10566;DHT22;5331;48.148;16.326;2023-06-14T07:00:32;22.60;1.00
10566;DHT22;5331;48.148;16.326;2023-06-14T07:02:59;22.40;1.00
10566;DHT22;5331;48.148;16.326;2023-06-14T07:05:25;22.50;1.00
10566;DHT22;5331;48.148;16.326;2023-06-14T07:07:52;22.80;1.00
10566;DHT22;5331;48.148;16.326;2023-06-14T07:10:21;22.80;1.00
10566;DHT22;5331;48.148;16.326;2023-06-14T07:12:50;23.00;1.00
10566;DHT22;5331;48.148;16.326;2023-06-14T07:15:17;23.10;1.00
10566;DHT22;5331;48.148;16.326;2023-06-14T07:17:44;23.20;1.00
10566;DHT22;5331;48.148;16.326;2023-06-14T07:20:13;22.60;1.00
10566;DHT22;5331;48.148;16.326;2023-06-14T07:22:42;22.60;1.00
10566;DHT22;5331;48.148;16.326;2023-06-14T07:25:12;22.30;1.00
10566;DHT22;5331;48.148;16.326;2023-06-14T07:27:41;22.20;1.00
10566;DHT22;5331;48.148;16.326;2023-06-14T07:30:09;23.20;1.00
10566;DHT22;5331;48.148;16.326;2023-06-14T07:32:36;23.20;1.00
10566;DHT22;5331;48.148;16.326;2023-06-14T07:35:04;23.60;1.00
10566;DHT22;5331;48.148;16.326;2023-06-14T07:37:31;23.80;1.00
10566;DHT22;5331;48.148;16.326;2023-06-14T07:39:58;24.10;1.00
10566;DHT22;5331;48.148;16.326;2023-06-14T07:42:28;24.10;1.00
10566;DHT22;5331;48.148;16.326;2023-06-14T07:44:57;24.50;1.00
10566;DHT22;5331;48.148;16.326;2023-06-14T07:47:24;24.90;1.00
10566;DHT22;5331;48.148;16.326;2023-06-14T07:49:50;24.90;1.00
10566;DHT22;5331;48.148;16.326;2023-06-14T07:52:17;24.70;1.00
10566;DHT22;5331;48.148;16.326;2023-06-14T07:54:44;24.20;1.00
10566;DHT22;5331;48.148;16.326;2023-06-14T07:57:11;24.10;1.00
10566;DHT22;5331;48.148;16.326;2023-06-14T07:59:38;24.10;1.00
10566;DHT22;5331;48.148;16.326;2023-06-14T08:02:07;23.90;1.00
10566;DHT22;5331;48.148;16.326;2023-06-14T08:04:34;24.10;1.00
10566;DHT22;5331;48.148;16.326;2023-06-14T08:07:01;23.70;1.00
10566;DHT22;5331;48.148;16.326;2023-06-14T08:09:28;23.10;1.00
10566;DHT22;5331;48.148;16.326;2023-06-14T08:11:56;22.80;1.00
10566;DHT22;5331;48.148;16.326;2023-06-14T08:14:24;22.80;1.00
10566;DHT22;5331;48.148;16.326;2023-06-14T08:16:51;22.60;1.00
10566;DHT22;5331;48.148;16.326;2023-06-14T08:19:19;22.50;1.00
10566;DHT22;5331;48.148;16.326;2023-06-14T08:21:46;22.50;1.00
10566;DHT22;5331;48.148;16.326;2023-06-14T08:24:14;22.40;1.00
10566;DHT22;5331;48.148;16.326;2023-06-14T08:26:41;22.20;1.00
10566;DHT22;5331;48.148;16.326;2023-06-14T08:29:10;22.20;1.00
10566;DHT22;5331;48.148;16.326;2023-06-14T08:31:36;22.20;1.00
10566;DHT22;5331;48.148;16.326;2023-06-14T08:34:03;22.40;1.00
10566;DHT22;5331;48.148;16.326;2023-06-14T08:36:32;22.40;1.00
10566;DHT22;5331;48.148;16.326;2023-06-14T08:38:59;22.40;1.00
10566;DHT22;5331;48.148;16.326;2023-06-14T08:41:35;22.60;1.00
10566;DHT22;5331;48.148;16.326;2023-06-14T08:44:02;22.80;1.00
10566;DHT22;5331;48.148;16.326;2023-06-14T08:46:34;22.60;1.00
10566;DHT22;5331;48.148;16.326;2023-06-14T08:49:02;22.60;1.00
10566;DHT22;5331;48.148;16.326;2023-06-14T08:51:33;22.30;1.00
10566;DHT22;5331;48.148;16.326;2023-06-14T08:54:02;22.00;1.00
10566;DHT22;5331;48.148;16.326;2023-06-14T08:56:30;21.80;1.00
10566;DHT22;5331;48.148;16.326;2023-06-14T08:59:00;21.60;1.00
10566;DHT22;5331;48.148;16.326;2023-06-14T09:01:32;21.70;1.00
10566;DHT22;5331;48.148;16.326;2023-06-14T09:04:00;21.80;1.00
10566;DHT22;5331;48.148;16.326;2023-06-14T09:06:27;21.70;1.00
10566;DHT22;5331;48.148;16.326;2023-06-14T09:08:57;21.70;1.00
10566;DHT22;5331;48.148;16.326;2023-06-14T09:11:24;21.70;1.00
10566;DHT22;5331;48.148;16.326;2023-06-14T09:13:52;21.60;1.00
10566;DHT22;5331;48.148;16.326;2023-06-14T09:16:19;21.70;1.00
10566;DHT22;5331;48.148;16.326;2023-06-14T09:18:47;21.80;1.00
10566;DHT22;5331;48.148;16.326;2023-06-14T09:21:15;22.10;1.00
10566;DHT22;5331;48.148;16.326;2023-06-14T09:23:43;22.10;1.00
10566;DHT22;5331;48.148;16.326;2023-06-14T09:26:13;22.20;1.00
10566;DHT22;5331;48.148;16.326;2023-06-14T09:28:43;21.90;1.00
10566;DHT22;5331;48.148;16.326;2023-06-14T09:31:12;21.80;1.00
10566;DHT22;5331;48.148;16.326;2023-06-14T09:33:39;22.20;1.00
10566;DHT22;5331;48.148;16.326;2023-06-14T09:36:11;22.60;1.00
10566;DHT22;5331;48.148;16.326;2023-06-14T09:38:41;22.80;1.00
10566;DHT22;5331;48.148;16.326;2023-06-14T09:41:08;23.00;1.00
10566;DHT22;5331;48.148;16.326;2023-06-14T09:43:36;23.30;1.00
10566;DHT22;5331;48.148;16.326;2023-06-14T09:46:05;23.60;1.00
10566;DHT22;5331;48.148;16.326;2023-06-14T09:48:32;23.80;1.00
10566;DHT22;5331;48.148;16.326;2023-06-14T09:50:59;23.90;1.00
10566;DHT22;5331;48.148;16.326;2023-06-14T09:53:29;23.80;1.00
10566;DHT22;5331;48.148;16.326;2023-06-14T09:55:57;23.20;1.00
10566;DHT22;5331;48.148;16.326;2023-06-14T09:58:26;23.50;1.00
10566;DHT22;5331;48.148;16.326;2023-06-14T10:00:57;23.60;1.00
10566;DHT22;5331;48.148;16.326;2023-06-14T10:03:28;24.00;1.00
10566;DHT22;5331;48.148;16.326;2023-06-14T10:05:58;24.30;1.00
10566;DHT22;5331;48.148;16.326;2023-06-14T10:08:30;24.60;1.00
10566;DHT22;5331;48.148;16.326;2023-06-14T10:10:58;24.70;1.00
10566;DHT22;5331;48.148;16.326;2023-06-14T10:13:26;24.50;1.00
10566;DHT22;5331;48.148;16.326;2023-06-14T10:16:00;24.50;1.00
10566;DHT22;5331;48.148;16.326;2023-06-14T10:18:35;24.50;1.00
10566;DHT22;5331;48.148;16.326;2023-06-14T10:21:13;24.40;1.00
10566;DHT22;5331;48.148;16.326;2023-06-14T10:23:42;24.20;1.00
10566;DHT22;5331;48.148;16.326;2023-06-14T10:26:19;24.00;1.00
10566;DHT22;5331;48.148;16.326;2023-06-14T10:28:57;24.20;1.00
10566;DHT22;5331;48.148;16.326;2023-06-14T10:31:40;23.40;1.00
10566;DHT22;5331;48.148;16.326;2023-06-14T10:34:07;23.40;1.00
10566;DHT22;5331;48.148;16.326;2023-06-14T10:36:34;23.20;1.00
10566;DHT22;5331;48.148;16.326;2023-06-14T10:39:05;23.00;1.00
10566;DHT22;5331;48.148;16.326;2023-06-14T10:41:53;23.30;1.00
10566;DHT22;5331;48.148;16.326;2023-06-14T10:44:40;23.30;1.00
10566;DHT22;5331;48.148;16.326;2023-06-14T10:47:10;23.40;1.00
10566;DHT22;5331;48.148;16.326;2023-06-14T10:49:43;23.10;1.00
10566;DHT22;5331;48.148;16.326;2023-06-14T10:52:12;23.00;1.00
10566;DHT22;5331;48.148;16.326;2023-06-14T10:55:13;23.30;1.00
10566;DHT22;5331;48.148;16.326;2023-06-14T10:57:42;24.00;1.00
10566;DHT22;5331;48.148;16.326;2023-06-14T11:00:10;24.70;1.00
10566;DHT22;5331;48.148;16.326;2023-06-14T11:03:22;24.70;1.00
10566;DHT22;5331;48.148;16.326;2023-06-14T11:05:54;24.30;1.00
10566;DHT22;5331;48.148;16.326;2023-06-14T11:08:44;24.00;1.00
10566;DHT22;5331;48.148;16.326;2023-06-14T11:11:17;23.80;1.00
10566;DHT22;5331;48.148;16.326;2023-06-14T11:13:45;24.00;1.00
10566;DHT22;5331;48.148;16.326;2023-06-14T11:16:13;23.90;1.00
10566;DHT22;5331;48.148;16.326;2023-06-14T11:18:42;23.80;1.00
10566;DHT22;5331;48.148;16.326;2023-06-14T11:21:10;23.50;1.00
10566;DHT22;5331;48.148;16.326;2023-06-14T11:23:37;23.70;1.00
10566;DHT22;5331;48.148;16.326;2023-06-14T11:26:04;23.80;1.00
10566;DHT22;5331;48.148;16.326;2023-06-14T11:28:38;23.50;1.00
10566;DHT22;5331;48.148;16.326;2023-06-14T11:31:05;23.10;1.00
10566;DHT22;5331;48.148;16.326;2023-06-14T11:33:33;23.20;1.00
10566;DHT22;5331;48.148;16.326;2023-06-14T11:36:04;23.20;1.00
10566;DHT22;5331;48.148;16.326;2023-06-14T11:38:35;23.10;1.00
10566;DHT22;5331;48.148;16.326;2023-06-14T11:41:02;22.90;1.00
10566;DHT22;5331;48.148;16.326;2023-06-14T11:43:30;22.50;1.00
10566;DHT22;5331;48.148;16.326;2023-06-14T11:45:59;22.60;1.00
10566;DHT22;5331;48.148;16.326;2023-06-14T11:48:36;22.60;1.00
10566;DHT22;5331;48.148;16.326;2023-06-14T11:51:04;22.50;1.00
10566;DHT22;5331;48.148;16.326;2023-06-14T11:53:31;22.80;1.00
10566;DHT22;5331;48.148;16.326;2023-06-14T11:55:58;22.80;1.00
10566;DHT22;5331;48.148;16.326;2023-06-14T11:58:25;22.90;1.00
10566;DHT22;5331;48.148;16.326;2023-06-14T12:00:53;22.90;1.00
10566;DHT22;5331;48.148;16.326;2023-06-14T12:03:23;23.20;1.00
10566;DHT22;5331;48.148;16.326;2023-06-14T12:05:50;23.70;1.00
10566;DHT22;5331;48.148;16.326;2023-06-14T12:08:36;23.80;1.00
10566;DHT22;5331;48.148;16.326;2023-06-14T12:11:06;24.50;1.00
10566;DHT22;5331;48.148;16.326;2023-06-14T12:13:34;24.50;1.00
10566;DHT22;5331;48.148;16.326;2023-06-14T12:16:03;24.20;1.00
10566;DHT22;5331;48.148;16.326;2023-06-14T12:18:36;23.70;1.00
10566;DHT22;5331;48.148;16.326;2023-06-14T12:21:04;23.30;1.00
10566;DHT22;5331;48.148;16.326;2023-06-14T12:23:50;23.20;1.00
10566;DHT22;5331;48.148;16.326;2023-06-14T12:26:19;23.10;1.00
10566;DHT22;5331;48.148;16.326;2023-06-14T12:28:47;23.10;1.00
10566;DHT22;5331;48.148;16.326;2023-06-14T12:31:16;23.00;1.00
10566;DHT22;5331;48.148;16.326;2023-06-14T12:33:50;22.70;1.00
10566;DHT22;5331;48.148;16.326;2023-06-14T12:36:26;22.40;1.00
10566;DHT22;5331;48.148;16.326;2023-06-14T12:39:21;22.30;1.00
10566;DHT22;5331;48.148;16.326;2023-06-14T12:41:49;22.20;1.00
10566;DHT22;5331;48.148;16.326;2023-06-14T12:44:23;22.20;1.00
10566;DHT22;5331;48.148;16.326;2023-06-14T12:46:51;22.20;1.00
10566;DHT22;5331;48.148;16.326;2023-06-14T12:49:29;22.20;1.00
10566;DHT22;5331;48.148;16.326;2023-06-14T12:52:00;22.10;1.00
10566;DHT22;5331;48.148;16.326;2023-06-14T12:54:39;21.90;1.00
10566;DHT22;5331;48.148;16.326;2023-06-14T12:57:11;22.00;1.00
10566;DHT22;5331;48.148;16.326;2023-06-14T12:59:38;22.00;1.00
10566;DHT22;5331;48.148;16.326;2023-06-14T13:02:16;21.80;1.00
10566;DHT22;5331;48.148;16.326;2023-06-14T13:04:44;21.60;1.00
10566;DHT22;5331;48.148;16.326;2023-06-14T13:07:19;21.50;1.00
10566;DHT22;5331;48.148;16.326;2023-06-14T13:10:00;21.50;1.00
10566;DHT22;5331;48.148;16.326;2023-06-14T13:12:48;21.50;1.00
10566;DHT22;5331;48.148;16.326;2023-06-14T13:15:26;21.50;1.00
10566;DHT22;5331;48.148;16.326;2023-06-14T13:17:54;21.60;1.00
10566;DHT22;5331;48.148;16.326;2023-06-14T13:20:21;21.70;1.00
10566;DHT22;5331;48.148;16.326;2023-06-14T13:22:49;21.70;1.00
10566;DHT22;5331;48.148;16.326;2023-06-14T13:25:17;21.70;1.00
10566;DHT22;5331;48.148;16.326;2023-06-14T13:27:45;21.60;1.00
10566;DHT22;5331;48.148;16.326;2023-06-14T13:30:13;21.60;1.00
10566;DHT22;5331;48.148;16.326;2023-06-14T13:32:42;21.60;1.00
10566;DHT22;5331;48.148;16.326;2023-06-14T13:35:23;21.60;1.00
10566;DHT22;5331;48.148;16.326;2023-06-14T13:37:51;21.60;1.00
10566;DHT22;5331;48.148;16.326;2023-06-14T13:40:19;21.80;1.00
10566;DHT22;5331;48.148;16.326;2023-06-14T13:42:50;21.80;1.00
10566;DHT22;5331;48.148;16.326;2023-06-14T13:45:19;22.20;1.00
10566;DHT22;5331;48.148;16.326;2023-06-14T13:47:54;22.60;1.00
10566;DHT22;5331;48.148;16.326;2023-06-14T13:50:21;23.10;1.00
10566;DHT22;5331;48.148;16.326;2023-06-14T13:52:48;23.20;1.00
10566;DHT22;5331;48.148;16.326;2023-06-14T13:55:15;23.40;1.00
10566;DHT22;5331;48.148;16.326;2023-06-14T13:57:44;23.70;1.00
10566;DHT22;5331;48.148;16.326;2023-06-14T14:00:12;24.00;1.00
10566;DHT22;5331;48.148;16.326;2023-06-14T14:02:40;24.00;1.00
10566;DHT22;5331;48.148;16.326;2023-06-14T14:05:08;24.00;1.00
10566;DHT22;5331;48.148;16.326;2023-06-14T14:07:35;23.70;1.00
10566;DHT22;5331;48.148;16.326;2023-06-14T14:10:04;23.50;1.00
10566;DHT22;5331;48.148;16.326;2023-06-14T14:12:32;23.60;1.00
10566;DHT22;5331;48.148;16.326;2023-06-14T14:15:01;23.80;1.00
10566;DHT22;5331;48.148;16.326;2023-06-14T14:17:28;23.80;1.00
10566;DHT22;5331;48.148;16.326;2023-06-14T14:19:55;23.90;1.00
10566;DHT22;5331;48.148;16.326;2023-06-14T14:22:22;24.00;1.00
10566;DHT22;5331;48.148;16.326;2023-06-14T14:24:51;24.20;1.00
10566;DHT22;5331;48.148;16.326;2023-06-14T14:27:18;23.80;1.00
10566;DHT22;5331;48.148;16.326;2023-06-14T14:29:46;23.40;1.00
10566;DHT22;5331;48.148;16.326;2023-06-14T14:32:14;23.50;1.00
10566;DHT22;5331;48.148;16.326;2023-06-14T14:34:41;23.30;1.00
10566;DHT22;5331;48.148;16.326;2023-06-14T14:37:08;23.10;1.00
10566;DHT22;5331;48.148;16.326;2023-06-14T14:39:37;23.10;1.00
10566;DHT22;5331;48.148;16.326;2023-06-14T14:42:05;23.30;1.00
10566;DHT22;5331;48.148;16.326;2023-06-14T14:44:34;23.30;1.00
10566;DHT22;5331;48.148;16.326;2023-06-14T14:47:04;23.40;1.00
10566;DHT22;5331;48.148;16.326;2023-06-14T14:49:33;23.40;1.00
10566;DHT22;5331;48.148;16.326;2023-06-14T14:54:28;23.40;1.00
10566;DHT22;5331;48.148;16.326;2023-06-14T14:56:55;23.60;1.00
10566;DHT22;5331;48.148;16.326;2023-06-14T14:59:32;23.60;1.00
10566;DHT22;5331;48.148;16.326;2023-06-14T15:01:59;23.90;1.00
10566;DHT22;5331;48.148;16.326;2023-06-14T15:04:27;23.90;1.00
10566;DHT22;5331;48.148;16.326;2023-06-14T15:10:33;23.90;1.00
10566;DHT22;5331;48.148;16.326;2023-06-14T15:21:31;22.90;1.00
10566;DHT22;5331;48.148;16.326;2023-06-14T15:26:32;22.60;1.00
10566;DHT22;5331;48.148;16.326;2023-06-14T15:29:04;22.60;1.00
10566;DHT22;5331;48.148;16.326;2023-06-14T15:31:43;22.50;1.00
10566;DHT22;5331;48.148;16.326;2023-06-14T15:36:40;22.40;1.00
10566;DHT22;5331;48.148;16.326;2023-06-14T15:41:55;22.40;1.00
10566;DHT22;5331;48.148;16.326;2023-06-14T15:49:24;22.10;1.00
10566;DHT22;5331;48.148;16.326;2023-06-14T15:51:51;22.10;1.00
10566;DHT22;5331;48.148;16.326;2023-06-14T15:54:18;22.00;1.00
10566;DHT22;5331;48.148;16.326;2023-06-14T15:56:46;22.00;1.00
10566;DHT22;5331;48.148;16.326;2023-06-14T15:59:14;22.00;1.00
10566;DHT22;5331;48.148;16.326;2023-06-14T16:01:42;21.90;1.00
10566;DHT22;5331;48.148;16.326;2023-06-14T16:04:09;22.00;1.00
10566;DHT22;5331;48.148;16.326;2023-06-14T16:06:36;21.90;1.00
10566;DHT22;5331;48.148;16.326;2023-06-14T16:09:03;21.90;1.00
10566;DHT22;5331;48.148;16.326;2023-06-14T16:11:30;22.00;1.00
10566;DHT22;5331;48.148;16.326;2023-06-14T16:14:00;21.90;1.00
10566;DHT22;5331;48.148;16.326;2023-06-14T16:16:29;21.90;1.00
10566;DHT22;5331;48.148;16.326;2023-06-14T16:18:56;21.80;1.00
10566;DHT22;5331;48.148;16.326;2023-06-14T16:21:23;21.80;1.00
10566;DHT22;5331;48.148;16.326;2023-06-14T16:23:49;21.90;1.00
10566;DHT22;5331;48.148;16.326;2023-06-14T16:26:16;22.00;1.00
10566;DHT22;5331;48.148;16.326;2023-06-14T16:28:43;22.20;1.00
10566;DHT22;5331;48.148;16.326;2023-06-14T16:31:11;22.40;1.00
10566;DHT22;5331;48.148;16.326;2023-06-14T16:33:41;22.30;1.00
10566;DHT22;5331;48.148;16.326;2023-06-14T16:36:08;22.40;1.00
10566;DHT22;5331;48.148;16.326;2023-06-14T16:38:35;22.40;1.00